In Rescue
 
Open Full Screen Window  High Contrast Mode
July 23, 2019 12:43 AM EDT
Weather Information
Wind Direction
  ---
Wind Speed
  00 kt (0 mph)
Wind Gust
  00 kt (0 mph)
Altimeter
30.00 in
Visibility
10 SM
Temperature
14° C
57° F
Dewpoint
14° C
57° F
Humidity
100%
1hr Rain Fall
00.00 in.
24hr Rain Fall
00.00 in.
Sky Condition
Clear
VFR

METAR KTTF 230443Z AUTO 00000KT 10SM CLR 14/14 A3000 RMK AO2 T01430140

FAA Disclaimer: The data displayed is for advisory purposes only and is not to be used for flight planning or operations.